Kingston, Nevada
Current Conditions -  °F | °C
As of 7:53 PM on Friday 24 Oct 2014 (Local Time) from KLOL Reporting Station
Clear Clear  
Wind Chill: 58°   Ceiling: Unl
Heat Index: 58°   Visibility: 10mi
Dew Point: 27°   Wind: 5mph
Humidity: 31%   Direction: 310°NW
Pressure: 29.92"   Gusts: NA
Location:  39.7407°N, 117.085°W
Report Text: KLOL 250253Z AUTO 31004KT 10SM CLR 14/M03 A2992 RMK AO2 SLP129 T01441028 55001
Loading
Personal Weather Stations






























Interactive Weather Map
Tropical Storm Tracking
New forecast layout! Learn more

10-Day Weather Forecast

Advertisements
Track Severe Weather on mobile